createdAt,value
2018-11-26T00:00:36.240Z,12.80
2018-11-26T00:05:40.480Z,13.57
2018-11-26T00:11:48.919Z,13.37
2018-11-26T00:16:52.383Z,13.58
2018-11-26T00:21:55.956Z,15.03
2018-11-26T00:26:59.815Z,14.20
2018-11-26T00:32:03.890Z,13.97
2018-11-26T00:37:07.505Z,13.97
2018-11-26T00:42:11.333Z,13.10
2018-11-26T00:47:15.013Z,14.33
2018-11-26T00:52:19.282Z,15.40
2018-11-26T00:57:22.982Z,14.77
2018-11-26T01:02:26.499Z,15.27
2018-11-26T01:07:29.955Z,14.33
2018-11-26T01:12:33.598Z,13.88
2018-11-26T01:17:37.387Z,14.23
2018-11-26T01:22:41.073Z,14.23
2018-11-26T01:27:44.915Z,13.77
2018-11-26T01:32:49.064Z,13.80
2018-11-26T01:37:52.908Z,14.30
2018-11-26T01:42:56.534Z,14.40
2018-11-26T01:48:00.054Z,14.80
2018-11-26T01:53:03.547Z,14.97
2018-11-26T01:58:07.046Z,13.47
2018-11-26T02:03:10.781Z,13.57
2018-11-26T02:08:14.621Z,15.03
2018-11-26T02:13:18.930Z,15.10
2018-11-26T02:18:23.116Z,14.80
2018-11-26T02:23:26.635Z,14.73
2018-11-26T02:28:30.483Z,14.60
2018-11-26T02:33:34.105Z,15.38
2018-11-26T02:38:37.805Z,15.03
2018-11-26T02:43:41.586Z,14.87
2018-11-26T02:48:46.324Z,15.10
2018-11-26T02:53:50.879Z,14.50
2018-11-26T02:58:54.336Z,15.35
2018-11-26T03:03:57.835Z,15.93
2018-11-26T03:09:02.091Z,16.20
2018-11-26T03:14:06.219Z,15.10
2018-11-26T03:19:10.315Z,15.87
2018-11-26T03:24:14.123Z,14.50
2018-11-26T03:29:17.953Z,15.37
2018-11-26T03:34:21.640Z,15.47
2018-11-26T03:39:25.532Z,16.03
2018-11-26T03:44:29.365Z,16.23
2018-11-26T03:49:33.595Z,15.10
2018-11-26T03:54:37.380Z,15.63
2018-11-26T03:59:41.410Z,15.93
2018-11-26T04:04:45.698Z,15.27
2018-11-26T04:09:49.621Z,14.25
2018-11-26T04:14:53.416Z,14.50
2018-11-26T04:19:57.897Z,14.37
2018-11-26T04:25:01.522Z,13.63
2018-11-26T04:30:08.010Z,14.00
2018-11-26T04:35:11.685Z,14.33
2018-11-26T04:40:15.676Z,15.33
2018-11-26T04:45:20.445Z,14.23
2018-11-26T04:50:25.061Z,13.47
2018-11-26T04:55:28.639Z,13.17
2018-11-26T05:00:32.452Z,15.43
2018-11-26T05:05:36.145Z,18.17
2018-11-26T05:10:39.895Z,16.47
2018-11-26T05:15:43.756Z,15.63
2018-11-26T05:20:47.394Z,14.17
2018-11-26T05:25:51.135Z,14.37
2018-11-26T05:30:54.713Z,14.43
2018-11-26T05:35:58.299Z,13.60
2018-11-26T05:41:02.377Z,11.73
2018-11-26T05:46:06.514Z,11.40
2018-11-26T05:51:10.536Z,10.33
2018-11-26T05:56:14.455Z,11.27
2018-11-26T06:01:18.022Z,11.67
2018-11-26T06:06:21.617Z,10.67
2018-11-26T06:11:25.155Z,10.53
2018-11-26T06:16:28.777Z,11.80
2018-11-26T06:21:32.316Z,10.20
2018-11-26T06:26:35.852Z,11.60
2018-11-26T06:31:40.144Z,12.23
2018-11-26T06:36:43.973Z,11.57
2018-11-26T06:41:48.307Z,12.20
2018-11-26T06:46:52.761Z,13.23
2018-11-26T06:51:57.291Z,13.30
2018-11-26T06:57:00.873Z,13.77
2018-11-26T07:02:04.705Z,13.77
2018-11-26T07:07:08.683Z,14.33
2018-11-26T07:12:12.613Z,14.80
2018-11-26T07:17:16.357Z,15.67
2018-11-26T07:22:20.147Z,17.17
2018-11-26T07:27:23.611Z,16.97
2018-11-26T07:32:27.222Z,17.13
2018-11-26T07:37:30.925Z,16.77
2018-11-26T07:42:34.724Z,17.80
2018-11-26T07:47:38.454Z,16.40
2018-11-26T07:52:43.088Z,15.80
2018-11-26T07:57:46.660Z,15.23
2018-11-26T08:02:50.728Z,14.63
2018-11-26T08:07:54.402Z,15.80
2018-11-26T08:12:57.917Z,13.38
2018-11-26T08:18:02.554Z,15.63
2018-11-26T08:23:06.854Z,14.30
2018-11-26T08:28:10.406Z,15.10
2018-11-26T08:33:13.977Z,13.73
2018-11-26T08:38:22.717Z,14.10
2018-11-26T09:59:23.256Z,15.37
2018-11-26T10:04:27.634Z,13.63
2018-11-26T10:09:31.547Z,14.63
2018-11-26T10:14:37.317Z,15.23
2018-11-26T10:19:40.930Z,12.33
2018-11-26T10:24:44.641Z,12.73
2018-11-26T10:29:48.380Z,13.60
2018-11-26T10:34:52.692Z,13.10
2018-11-26T10:39:56.972Z,12.13
2018-11-26T10:45:01.275Z,11.77
2018-11-26T10:50:06.079Z,11.90
2018-11-26T10:55:12.402Z,11.70
2018-11-26T11:00:22.416Z,12.85
2018-11-26T11:05:26.336Z,13.32
2018-11-26T11:10:32.081Z,12.80
2018-11-26T11:15:36.175Z,11.70
2018-11-26T11:20:41.260Z,12.33
2018-11-26T11:25:45.191Z,12.33
2018-11-26T11:30:48.804Z,12.70
2018-11-26T11:35:52.363Z,11.93
2018-11-26T11:40:56.870Z,11.20
2018-11-26T11:46:01.347Z,10.33
2018-11-26T11:51:04.878Z,12.07
2018-11-26T11:56:08.800Z,11.33
2018-11-26T12:01:13.443Z,12.30
2018-11-26T12:06:17.113Z,11.90
2018-11-26T12:11:20.632Z,12.33
2018-11-26T12:16:24.247Z,10.97
2018-11-26T12:21:29.464Z,11.00
2018-11-26T12:26:34.493Z,11.80
2018-11-26T12:31:38.083Z,10.87
2018-11-26T12:36:41.642Z,11.87
2018-11-26T12:41:45.578Z,11.97
2018-11-26T12:46:49.896Z,12.73
2018-11-26T12:51:54.784Z,11.97
2018-11-26T12:56:58.333Z,11.22
2018-11-26T13:02:02.218Z,12.43
2018-11-26T13:07:06.343Z,10.77
2018-11-26T13:12:10.177Z,10.57
2018-11-26T13:17:14.121Z,12.10
2018-11-26T13:22:17.931Z,13.60
2018-11-26T13:27:21.509Z,13.70
2018-11-26T13:32:25.354Z,12.40
2018-11-26T13:37:29.098Z,10.20
2018-11-26T13:42:33.493Z,9.90
2018-11-26T13:47:37.684Z,9.70
2018-11-26T13:52:42.292Z,10.28
2018-11-26T13:57:46.337Z,9.90
2018-11-26T14:02:50.617Z,10.80
2018-11-26T14:07:54.396Z,11.00
2018-11-26T14:13:03.322Z,12.00
2018-11-26T14:18:07.838Z,18.50
2018-11-26T14:23:12.950Z,17.73
2018-11-26T14:28:20.174Z,18.65
2018-11-26T14:33:24.151Z,18.37
2018-11-26T14:38:28.619Z,28.30
2018-11-26T14:43:33.124Z,17.40
2018-11-26T14:48:37.684Z,12.23
2018-11-26T14:53:43.068Z,12.30
2018-11-26T14:58:46.931Z,12.10
2018-11-26T15:03:50.775Z,12.03
2018-11-26T15:08:55.545Z,10.07
2018-11-26T15:14:00.125Z,10.63
2018-11-26T15:19:04.587Z,11.70
2018-11-26T15:24:08.572Z,10.23
2018-11-26T15:29:12.582Z,10.77
2018-11-26T15:34:16.106Z,9.80
2018-11-26T15:39:20.831Z,10.27
2018-11-26T15:44:25.158Z,12.45
2018-11-26T15:49:29.641Z,13.33
2018-11-26T15:54:33.374Z,11.77
2018-11-26T15:59:40.115Z,10.37
2018-11-26T16:04:44.765Z,10.13
2018-11-26T16:09:48.666Z,10.05
2018-11-26T16:14:52.597Z,10.08
2018-11-26T16:19:56.678Z,9.70
2018-11-26T16:25:01.539Z,10.50
2018-11-26T16:30:08.091Z,10.83
2018-11-26T16:35:14.945Z,11.57
2018-11-26T16:40:18.897Z,11.27
2018-11-26T16:45:24.421Z,14.55
2018-11-26T16:50:29.511Z,14.77
2018-11-26T16:55:34.078Z,15.10
2018-11-26T17:00:37.900Z,17.55
2018-11-26T17:05:42.818Z,16.13
2018-11-26T17:10:47.814Z,10.80
2018-11-26T17:15:50.870Z,10.57
2018-11-26T17:20:54.872Z,12.73
2018-11-26T17:25:59.547Z,13.13
2018-11-26T17:31:03.931Z,14.00
2018-11-26T17:36:07.732Z,13.80
2018-11-26T17:41:11.464Z,13.87
2018-11-26T17:46:15.266Z,20.00
2018-11-26T17:51:18.894Z,14.63
2018-11-26T17:56:22.849Z,11.67
2018-11-26T18:01:32.466Z,12.73
2018-11-26T18:06:37.086Z,15.63
2018-11-26T18:11:41.034Z,13.53
2018-11-26T18:16:44.884Z,22.43
2018-11-26T18:21:48.520Z,10.20
2018-11-26T18:26:52.085Z,10.47
2018-11-26T18:31:55.617Z,10.60
2018-11-26T18:37:00.437Z,10.30
2018-11-26T18:42:04.377Z,8.90
2018-11-26T18:47:08.608Z,8.97
2018-11-26T18:52:12.556Z,9.23
2018-11-26T18:57:20.246Z,9.40
2018-11-26T19:02:24.089Z,7.83
2018-11-26T19:07:28.185Z,7.67
2018-11-26T19:12:32.264Z,8.20
2018-11-26T19:17:38.756Z,7.80
2018-11-26T19:22:43.811Z,8.80
2018-11-26T19:27:47.635Z,10.10
2018-11-26T19:32:51.680Z,12.03
2018-11-26T19:37:55.957Z,14.30
2018-11-26T19:42:59.692Z,14.55
2018-11-26T19:48:04.243Z,13.30
2018-11-26T19:53:10.069Z,13.10
2018-11-26T19:58:14.224Z,14.70
2018-11-26T20:03:22.344Z,11.53
2018-11-26T20:08:26.003Z,14.90
2018-11-26T20:13:29.580Z,12.70
2018-11-26T20:18:33.101Z,12.27
2018-11-26T20:23:36.770Z,12.43
2018-11-26T20:28:40.653Z,12.60
2018-11-26T20:33:44.523Z,11.73
2018-11-26T20:38:49.175Z,12.93
2018-11-26T20:43:52.790Z,12.83
2018-11-26T20:49:01.417Z,11.17
2018-11-26T20:54:06.320Z,9.57
2018-11-26T20:59:11.623Z,11.17
2018-11-26T21:04:17.352Z,10.90
2018-11-26T21:09:22.104Z,15.60
2018-11-26T21:14:25.766Z,13.53
2018-11-26T21:19:29.763Z,17.33
2018-11-26T21:24:33.300Z,15.70
2018-11-26T21:29:37.321Z,16.82
2018-11-26T21:34:41.263Z,16.83
2018-11-26T21:39:46.019Z,17.37
2018-11-26T21:44:50.505Z,16.32
2018-11-26T21:49:54.517Z,16.30
2018-11-26T21:54:58.392Z,15.70
2018-11-26T22:00:02.540Z,15.20
2018-11-26T22:05:06.281Z,15.40
2018-11-26T22:10:11.718Z,16.23
2018-11-26T22:15:15.770Z,15.47
2018-11-26T22:20:21.833Z,14.47
2018-11-26T22:25:25.651Z,13.70
2018-11-26T22:30:30.781Z,14.45
2018-11-26T22:35:34.301Z,12.93
2018-11-26T22:40:38.014Z,13.07
2018-11-26T22:45:42.830Z,12.30
2018-11-26T22:50:46.589Z,13.07
2018-11-26T22:55:50.328Z,14.13
2018-11-26T23:00:55.124Z,13.73
2018-11-26T23:05:58.742Z,15.97
2018-11-26T23:11:02.444Z,15.10
2018-11-26T23:16:06.890Z,13.33
2018-11-26T23:21:10.386Z,15.13
2018-11-26T23:26:13.900Z,14.40
2018-11-26T23:31:17.371Z,13.60
2018-11-26T23:36:20.936Z,14.00
2018-11-26T23:41:25.397Z,14.33
2018-11-26T23:46:29.053Z,15.63
2018-11-26T23:51:32.796Z,12.40
2018-11-26T23:56:36.407Z,12.60
